sensor_id;sensor_type;location;lat;lon;timestamp;P1;durP1;ratioP1;P2;durP2;ratioP2
77828;SDS011;67019;51.034;3.728;2023-04-15T00:00:24;3.67;;;2.55;;
77828;SDS011;67019;51.034;3.728;2023-04-15T00:02:53;3.95;;;2.58;;
77828;SDS011;67019;51.034;3.728;2023-04-15T00:05:21;3.58;;;2.22;;
77828;SDS011;67019;51.034;3.728;2023-04-15T00:07:49;3.33;;;2.20;;
77828;SDS011;67019;51.034;3.728;2023-04-15T00:10:18;3.08;;;2.22;;
77828;SDS011;67019;51.034;3.728;2023-04-15T00:12:46;2.72;;;2.50;;
77828;SDS011;67019;51.034;3.728;2023-04-15T00:15:13;5.30;;;2.35;;
77828;SDS011;67019;51.034;3.728;2023-04-15T00:17:41;2.58;;;2.25;;
77828;SDS011;67019;51.034;3.728;2023-04-15T00:20:09;3.00;;;2.52;;
77828;SDS011;67019;51.034;3.728;2023-04-15T00:22:38;10.98;;;2.77;;
77828;SDS011;67019;51.034;3.728;2023-04-15T00:25:08;3.40;;;2.85;;
77828;SDS011;67019;51.034;3.728;2023-04-15T00:27:36;4.62;;;2.62;;
77828;SDS011;67019;51.034;3.728;2023-04-15T00:30:04;3.15;;;2.55;;
77828;SDS011;67019;51.034;3.728;2023-04-15T00:32:33;4.92;;;2.35;;
77828;SDS011;67019;51.034;3.728;2023-04-15T00:35:01;3.17;;;2.30;;
77828;SDS011;67019;51.034;3.728;2023-04-15T00:37:28;4.58;;;2.15;;
77828;SDS011;67019;51.034;3.728;2023-04-15T00:39:56;3.70;;;2.25;;
77828;SDS011;67019;51.034;3.728;2023-04-15T00:42:24;5.15;;;2.98;;
77828;SDS011;67019;51.034;3.728;2023-04-15T00:44:52;6.95;;;2.30;;
77828;SDS011;67019;51.034;3.728;2023-04-15T00:47:20;3.98;;;2.42;;
77828;SDS011;67019;51.034;3.728;2023-04-15T00:49:48;3.85;;;2.65;;
77828;SDS011;67019;51.034;3.728;2023-04-15T00:52:15;4.90;;;2.90;;
77828;SDS011;67019;51.034;3.728;2023-04-15T00:54:43;3.50;;;2.62;;
77828;SDS011;67019;51.034;3.728;2023-04-15T00:57:11;7.87;;;2.92;;
77828;SDS011;67019;51.034;3.728;2023-04-15T00:59:38;5.92;;;3.33;;
77828;SDS011;67019;51.034;3.728;2023-04-15T01:02:06;4.40;;;2.55;;
77828;SDS011;67019;51.034;3.728;2023-04-15T01:04:36;4.33;;;2.95;;
77828;SDS011;67019;51.034;3.728;2023-04-15T01:07:03;5.12;;;2.92;;
77828;SDS011;67019;51.034;3.728;2023-04-15T01:09:31;5.58;;;3.40;;
77828;SDS011;67019;51.034;3.728;2023-04-15T01:11:59;4.83;;;3.25;;
77828;SDS011;67019;51.034;3.728;2023-04-15T01:14:27;4.33;;;3.30;;
77828;SDS011;67019;51.034;3.728;2023-04-15T01:16:55;5.92;;;3.27;;
77828;SDS011;67019;51.034;3.728;2023-04-15T01:19:22;4.80;;;3.47;;
77828;SDS011;67019;51.034;3.728;2023-04-15T01:21:50;5.12;;;3.45;;
77828;SDS011;67019;51.034;3.728;2023-04-15T01:24:18;7.33;;;4.10;;
77828;SDS011;67019;51.034;3.728;2023-04-15T01:26:46;6.70;;;4.45;;
77828;SDS011;67019;51.034;3.728;2023-04-15T01:29:15;5.08;;;3.75;;
77828;SDS011;67019;51.034;3.728;2023-04-15T01:31:54;4.87;;;4.28;;
77828;SDS011;67019;51.034;3.728;2023-04-15T01:34:20;9.68;;;4.08;;
77828;SDS011;67019;51.034;3.728;2023-04-15T01:36:47;7.25;;;4.67;;
77828;SDS011;67019;51.034;3.728;2023-04-15T01:39:16;10.45;;;4.87;;
77828;SDS011;67019;51.034;3.728;2023-04-15T01:41:44;7.50;;;5.20;;
77828;SDS011;67019;51.034;3.728;2023-04-15T01:44:11;7.53;;;5.53;;
77828;SDS011;67019;51.034;3.728;2023-04-15T01:46:39;10.28;;;5.85;;
77828;SDS011;67019;51.034;3.728;2023-04-15T01:49:07;11.75;;;6.95;;
77828;SDS011;67019;51.034;3.728;2023-04-15T01:51:34;14.00;;;8.10;;
77828;SDS011;67019;51.034;3.728;2023-04-15T01:54:02;11.78;;;6.65;;
77828;SDS011;67019;51.034;3.728;2023-04-15T01:56:30;15.00;;;8.53;;
77828;SDS011;67019;51.034;3.728;2023-04-15T01:58:58;10.65;;;6.78;;
77828;SDS011;67019;51.034;3.728;2023-04-15T02:01:26;10.28;;;6.12;;
77828;SDS011;67019;51.034;3.728;2023-04-15T02:03:53;12.47;;;6.83;;
77828;SDS011;67019;51.034;3.728;2023-04-15T02:06:21;10.50;;;7.08;;
77828;SDS011;67019;51.034;3.728;2023-04-15T02:08:49;10.95;;;7.35;;
77828;SDS011;67019;51.034;3.728;2023-04-15T02:11:16;13.30;;;7.65;;
77828;SDS011;67019;51.034;3.728;2023-04-15T02:13:44;10.55;;;7.35;;
77828;SDS011;67019;51.034;3.728;2023-04-15T02:16:20;11.22;;;7.42;;
77828;SDS011;67019;51.034;3.728;2023-04-15T02:18:45;8.13;;;4.75;;
77828;SDS011;67019;51.034;3.728;2023-04-15T02:21:13;5.70;;;3.70;;
77828;SDS011;67019;51.034;3.728;2023-04-15T02:23:40;9.35;;;4.15;;
77828;SDS011;67019;51.034;3.728;2023-04-15T02:26:08;5.47;;;3.87;;
77828;SDS011;67019;51.034;3.728;2023-04-15T02:28:36;6.05;;;4.15;;
77828;SDS011;67019;51.034;3.728;2023-04-15T02:31:04;5.90;;;4.47;;
77828;SDS011;67019;51.034;3.728;2023-04-15T02:33:32;7.92;;;4.58;;
77828;SDS011;67019;51.034;3.728;2023-04-15T02:36:01;8.85;;;5.80;;
77828;SDS011;67019;51.034;3.728;2023-04-15T02:38:29;8.25;;;4.05;;
77828;SDS011;67019;51.034;3.728;2023-04-15T02:40:57;8.28;;;4.72;;
77828;SDS011;67019;51.034;3.728;2023-04-15T02:43:24;5.03;;;4.53;;
77828;SDS011;67019;51.034;3.728;2023-04-15T02:45:52;8.00;;;5.75;;
77828;SDS011;67019;51.034;3.728;2023-04-15T02:48:19;6.05;;;4.72;;
77828;SDS011;67019;51.034;3.728;2023-04-15T02:50:47;6.45;;;4.72;;
77828;SDS011;67019;51.034;3.728;2023-04-15T02:53:15;6.45;;;4.83;;
77828;SDS011;67019;51.034;3.728;2023-04-15T02:55:42;5.33;;;4.12;;
77828;SDS011;67019;51.034;3.728;2023-04-15T02:58:10;5.95;;;4.92;;
77828;SDS011;67019;51.034;3.728;2023-04-15T03:00:37;5.83;;;5.22;;
77828;SDS011;67019;51.034;3.728;2023-04-15T03:03:05;6.03;;;5.35;;
77828;SDS011;67019;51.034;3.728;2023-04-15T03:05:33;7.15;;;5.95;;
77828;SDS011;67019;51.034;3.728;2023-04-15T03:08:02;7.85;;;6.47;;
77828;SDS011;67019;51.034;3.728;2023-04-15T03:10:31;11.55;;;7.10;;
77828;SDS011;67019;51.034;3.728;2023-04-15T03:12:59;11.22;;;7.15;;
77828;SDS011;67019;51.034;3.728;2023-04-15T03:15:26;13.25;;;7.75;;
77828;SDS011;67019;51.034;3.728;2023-04-15T03:17:54;11.25;;;7.72;;
77828;SDS011;67019;51.034;3.728;2023-04-15T03:20:21;13.62;;;8.48;;
77828;SDS011;67019;51.034;3.728;2023-04-15T03:22:49;11.70;;;8.73;;
77828;SDS011;67019;51.034;3.728;2023-04-15T03:25:17;17.45;;;9.53;;
77828;SDS011;67019;51.034;3.728;2023-04-15T03:27:44;14.13;;;9.58;;
77828;SDS011;67019;51.034;3.728;2023-04-15T03:30:13;13.70;;;10.18;;
77828;SDS011;67019;51.034;3.728;2023-04-15T03:32:41;21.42;;;12.45;;
77828;SDS011;67019;51.034;3.728;2023-04-15T03:35:08;20.43;;;11.28;;
77828;SDS011;67019;51.034;3.728;2023-04-15T03:37:36;18.95;;;12.93;;
77828;SDS011;67019;51.034;3.728;2023-04-15T03:40:04;24.77;;;14.20;;
77828;SDS011;67019;51.034;3.728;2023-04-15T03:42:32;18.92;;;12.95;;
77828;SDS011;67019;51.034;3.728;2023-04-15T03:45:00;20.50;;;13.62;;
77828;SDS011;67019;51.034;3.728;2023-04-15T03:47:28;25.43;;;14.00;;
77828;SDS011;67019;51.034;3.728;2023-04-15T03:49:57;21.10;;;14.20;;
77828;SDS011;67019;51.034;3.728;2023-04-15T03:52:25;27.35;;;14.90;;
77828;SDS011;67019;51.034;3.728;2023-04-15T03:54:52;24.23;;;15.38;;
77828;SDS011;67019;51.034;3.728;2023-04-15T03:57:20;22.98;;;14.87;;
77828;SDS011;67019;51.034;3.728;2023-04-15T03:59:48;23.15;;;15.93;;
77828;SDS011;67019;51.034;3.728;2023-04-15T04:02:15;25.48;;;15.70;;
77828;SDS011;67019;51.034;3.728;2023-04-15T04:04:43;23.32;;;16.00;;
77828;SDS011;67019;51.034;3.728;2023-04-15T04:07:14;27.25;;;16.75;;
77828;SDS011;67019;51.034;3.728;2023-04-15T04:09:43;28.70;;;17.17;;
77828;SDS011;67019;51.034;3.728;2023-04-15T04:12:10;27.25;;;17.05;;
77828;SDS011;67019;51.034;3.728;2023-04-15T04:14:38;22.20;;;15.32;;
77828;SDS011;67019;51.034;3.728;2023-04-15T04:17:07;23.32;;;14.68;;
77828;SDS011;67019;51.034;3.728;2023-04-15T04:19:35;22.50;;;14.68;;
77828;SDS011;67019;51.034;3.728;2023-04-15T04:22:02;23.00;;;15.48;;
77828;SDS011;67019;51.034;3.728;2023-04-15T04:24:30;28.83;;;14.03;;
77828;SDS011;67019;51.034;3.728;2023-04-15T04:26:58;21.62;;;14.18;;
77828;SDS011;67019;51.034;3.728;2023-04-15T04:29:25;29.37;;;15.85;;
77828;SDS011;67019;51.034;3.728;2023-04-15T04:31:53;20.92;;;13.22;;
77828;SDS011;67019;51.034;3.728;2023-04-15T04:34:22;24.32;;;14.13;;
77828;SDS011;67019;51.034;3.728;2023-04-15T04:36:50;21.93;;;15.63;;
77828;SDS011;67019;51.034;3.728;2023-04-15T04:39:17;19.35;;;13.85;;
77828;SDS011;67019;51.034;3.728;2023-04-15T04:41:45;20.37;;;13.40;;
77828;SDS011;67019;51.034;3.728;2023-04-15T04:44:12;24.32;;;16.00;;
77828;SDS011;67019;51.034;3.728;2023-04-15T04:46:41;24.37;;;14.30;;
77828;SDS011;67019;51.034;3.728;2023-04-15T04:49:08;18.77;;;13.05;;
77828;SDS011;67019;51.034;3.728;2023-04-15T04:51:37;28.27;;;15.25;;
77828;SDS011;67019;51.034;3.728;2023-04-15T04:54:05;22.10;;;13.62;;
77828;SDS011;67019;51.034;3.728;2023-04-15T04:56:33;21.85;;;13.28;;
77828;SDS011;67019;51.034;3.728;2023-04-15T04:59:01;17.98;;;12.80;;
77828;SDS011;67019;51.034;3.728;2023-04-15T05:01:28;18.37;;;12.30;;
77828;SDS011;67019;51.034;3.728;2023-04-15T05:03:56;19.87;;;13.35;;
77828;SDS011;67019;51.034;3.728;2023-04-15T05:06:23;18.10;;;12.00;;
77828;SDS011;67019;51.034;3.728;2023-04-15T05:08:51;23.87;;;12.15;;
77828;SDS011;67019;51.034;3.728;2023-04-15T05:11:18;19.73;;;10.93;;
77828;SDS011;67019;51.034;3.728;2023-04-15T05:13:49;18.42;;;11.20;;
77828;SDS011;67019;51.034;3.728;2023-04-15T05:16:16;15.68;;;11.38;;
77828;SDS011;67019;51.034;3.728;2023-04-15T05:18:45;15.28;;;9.50;;
77828;SDS011;67019;51.034;3.728;2023-04-15T05:21:12;17.20;;;10.08;;
77828;SDS011;67019;51.034;3.728;2023-04-15T05:23:40;18.30;;;10.13;;
77828;SDS011;67019;51.034;3.728;2023-04-15T05:26:08;20.08;;;8.70;;
77828;SDS011;67019;51.034;3.728;2023-04-15T05:28:36;18.75;;;9.88;;
77828;SDS011;67019;51.034;3.728;2023-04-15T05:31:03;15.28;;;10.03;;
77828;SDS011;67019;51.034;3.728;2023-04-15T05:33:32;17.42;;;7.62;;
77828;SDS011;67019;51.034;3.728;2023-04-15T05:35:59;18.27;;;8.55;;
77828;SDS011;67019;51.034;3.728;2023-04-15T05:38:27;14.15;;;8.78;;
77828;SDS011;67019;51.034;3.728;2023-04-15T05:40:54;11.95;;;7.25;;
77828;SDS011;67019;51.034;3.728;2023-04-15T05:43:22;11.25;;;6.97;;
77828;SDS011;67019;51.034;3.728;2023-04-15T05:45:50;10.82;;;8.00;;
77828;SDS011;67019;51.034;3.728;2023-04-15T05:48:17;11.48;;;7.50;;
77828;SDS011;67019;51.034;3.728;2023-04-15T05:50:45;12.90;;;7.55;;
77828;SDS011;67019;51.034;3.728;2023-04-15T05:53:13;13.15;;;6.55;;
77828;SDS011;67019;51.034;3.728;2023-04-15T05:55:41;11.10;;;6.40;;
77828;SDS011;67019;51.034;3.728;2023-04-15T05:58:09;10.32;;;6.80;;
77828;SDS011;67019;51.034;3.728;2023-04-15T06:00:37;15.85;;;7.25;;
77828;SDS011;67019;51.034;3.728;2023-04-15T06:03:05;13.88;;;7.67;;
77828;SDS011;67019;51.034;3.728;2023-04-15T06:05:33;14.05;;;8.45;;
77828;SDS011;67019;51.034;3.728;2023-04-15T06:08:00;14.60;;;8.38;;
77828;SDS011;67019;51.034;3.728;2023-04-15T06:10:28;15.10;;;9.48;;
77828;SDS011;67019;51.034;3.728;2023-04-15T06:12:57;21.50;;;9.48;;
77828;SDS011;67019;51.034;3.728;2023-04-15T06:15:25;22.62;;;10.65;;
77828;SDS011;67019;51.034;3.728;2023-04-15T06:17:54;18.12;;;10.00;;
77828;SDS011;67019;51.034;3.728;2023-04-15T06:20:22;19.37;;;11.30;;
77828;SDS011;67019;51.034;3.728;2023-04-15T06:22:50;16.42;;;10.30;;
77828;SDS011;67019;51.034;3.728;2023-04-15T06:25:18;15.75;;;8.85;;
77828;SDS011;67019;51.034;3.728;2023-04-15T06:27:45;29.25;;;10.05;;
77828;SDS011;67019;51.034;3.728;2023-04-15T06:30:13;16.40;;;9.25;;
77828;SDS011;67019;51.034;3.728;2023-04-15T06:32:41;23.20;;;10.18;;
77828;SDS011;67019;51.034;3.728;2023-04-15T06:35:08;18.25;;;8.60;;
77828;SDS011;67019;51.034;3.728;2023-04-15T06:37:36;11.45;;;7.25;;
77828;SDS011;67019;51.034;3.728;2023-04-15T06:40:04;19.90;;;9.58;;
77828;SDS011;67019;51.034;3.728;2023-04-15T06:42:33;17.48;;;8.60;;
77828;SDS011;67019;51.034;3.728;2023-04-15T06:45:03;18.27;;;8.65;;
77828;SDS011;67019;51.034;3.728;2023-04-15T06:47:31;19.52;;;8.80;;
77828;SDS011;67019;51.034;3.728;2023-04-15T06:49:59;18.17;;;8.55;;
77828;SDS011;67019;51.034;3.728;2023-04-15T06:52:26;13.65;;;8.45;;
77828;SDS011;67019;51.034;3.728;2023-04-15T06:54:54;13.32;;;7.85;;
77828;SDS011;67019;51.034;3.728;2023-04-15T06:57:23;14.55;;;7.53;;
77828;SDS011;67019;51.034;3.728;2023-04-15T06:59:51;12.85;;;7.53;;
77828;SDS011;67019;51.034;3.728;2023-04-15T07:02:19;18.00;;;7.95;;
77828;SDS011;67019;51.034;3.728;2023-04-15T07:04:47;15.55;;;8.00;;
77828;SDS011;67019;51.034;3.728;2023-04-15T07:07:14;14.85;;;7.53;;
77828;SDS011;67019;51.034;3.728;2023-04-15T07:09:42;19.67;;;7.92;;
77828;SDS011;67019;51.034;3.728;2023-04-15T07:12:10;16.48;;;8.28;;
77828;SDS011;67019;51.034;3.728;2023-04-15T07:14:37;14.35;;;8.13;;
77828;SDS011;67019;51.034;3.728;2023-04-15T07:17:05;13.95;;;7.37;;
77828;SDS011;67019;51.034;3.728;2023-04-15T07:19:33;16.42;;;7.50;;
77828;SDS011;67019;51.034;3.728;2023-04-15T07:22:00;11.25;;;7.22;;
77828;SDS011;67019;51.034;3.728;2023-04-15T07:24:28;11.68;;;7.37;;
77828;SDS011;67019;51.034;3.728;2023-04-15T07:26:56;12.20;;;8.03;;
77828;SDS011;67019;51.034;3.728;2023-04-15T07:29:24;16.27;;;7.87;;
77828;SDS011;67019;51.034;3.728;2023-04-15T07:31:52;10.20;;;6.25;;
77828;SDS011;67019;51.034;3.728;2023-04-15T07:34:21;11.18;;;6.67;;
77828;SDS011;67019;51.034;3.728;2023-04-15T07:36:49;14.40;;;8.30;;
77828;SDS011;67019;51.034;3.728;2023-04-15T07:39:17;16.30;;;6.83;;
77828;SDS011;67019;51.034;3.728;2023-04-15T07:41:44;12.88;;;6.62;;
77828;SDS011;67019;51.034;3.728;2023-04-15T07:44:13;15.20;;;6.55;;
77828;SDS011;67019;51.034;3.728;2023-04-15T07:46:41;9.93;;;5.72;;
77828;SDS011;67019;51.034;3.728;2023-04-15T07:49:08;14.78;;;7.33;;
77828;SDS011;67019;51.034;3.728;2023-04-15T07:51:35;18.73;;;7.80;;
77828;SDS011;67019;51.034;3.728;2023-04-15T07:54:03;16.00;;;7.95;;
77828;SDS011;67019;51.034;3.728;2023-04-15T07:56:31;18.50;;;8.65;;
77828;SDS011;67019;51.034;3.728;2023-04-15T07:58:58;16.27;;;9.00;;
77828;SDS011;67019;51.034;3.728;2023-04-15T08:01:28;18.27;;;10.63;;
77828;SDS011;67019;51.034;3.728;2023-04-15T08:03:56;25.65;;;13.50;;
77828;SDS011;67019;51.034;3.728;2023-04-15T08:06:27;27.17;;;14.55;;
77828;SDS011;67019;51.034;3.728;2023-04-15T08:08:54;27.87;;;13.85;;
77828;SDS011;67019;51.034;3.728;2023-04-15T08:11:22;28.55;;;14.20;;
77828;SDS011;67019;51.034;3.728;2023-04-15T08:13:50;52.98;;;22.93;;
77828;SDS011;67019;51.034;3.728;2023-04-15T08:16:19;43.40;;;17.70;;
77828;SDS011;67019;51.034;3.728;2023-04-15T08:19:04;43.52;;;25.32;;
77828;SDS011;67019;51.034;3.728;2023-04-15T08:21:32;27.87;;;14.47;;
77828;SDS011;67019;51.034;3.728;2023-04-15T08:24:00;43.30;;;19.05;;
77828;SDS011;67019;51.034;3.728;2023-04-15T08:26:28;30.52;;;15.25;;
77828;SDS011;67019;51.034;3.728;2023-04-15T08:28:55;32.03;;;17.27;;
77828;SDS011;67019;51.034;3.728;2023-04-15T08:31:25;31.07;;;16.35;;
77828;SDS011;67019;51.034;3.728;2023-04-15T08:33:55;41.35;;;17.87;;
77828;SDS011;67019;51.034;3.728;2023-04-15T08:36:24;31.12;;;16.25;;
77828;SDS011;67019;51.034;3.728;2023-04-15T08:38:51;26.73;;;13.50;;
77828;SDS011;67019;51.034;3.728;2023-04-15T08:41:20;29.27;;;15.45;;
77828;SDS011;67019;51.034;3.728;2023-04-15T08:43:51;29.80;;;16.57;;
77828;SDS011;67019;51.034;3.728;2023-04-15T08:46:19;25.15;;;14.38;;
77828;SDS011;67019;51.034;3.728;2023-04-15T08:48:47;22.90;;;13.05;;
77828;SDS011;67019;51.034;3.728;2023-04-15T08:51:16;16.77;;;10.10;;
77828;SDS011;67019;51.034;3.728;2023-04-15T08:53:45;18.70;;;10.17;;
77828;SDS011;67019;51.034;3.728;2023-04-15T08:56:13;16.23;;;9.48;;
77828;SDS011;67019;51.034;3.728;2023-04-15T08:58:44;21.90;;;9.95;;
77828;SDS011;67019;51.034;3.728;2023-04-15T09:01:13;13.00;;;8.95;;
77828;SDS011;67019;51.034;3.728;2023-04-15T09:03:43;18.52;;;9.58;;
77828;SDS011;67019;51.034;3.728;2023-04-15T09:06:11;17.30;;;9.00;;
77828;SDS011;67019;51.034;3.728;2023-04-15T09:08:39;14.28;;;9.93;;
77828;SDS011;67019;51.034;3.728;2023-04-15T09:11:07;19.50;;;9.83;;
77828;SDS011;67019;51.034;3.728;2023-04-15T09:13:34;16.05;;;9.13;;
77828;SDS011;67019;51.034;3.728;2023-04-15T09:16:03;18.25;;;9.30;;
77828;SDS011;67019;51.034;3.728;2023-04-15T09:18:33;13.98;;;9.18;;
77828;SDS011;67019;51.034;3.728;2023-04-15T09:21:04;15.93;;;9.15;;
77828;SDS011;67019;51.034;3.728;2023-04-15T09:23:34;16.03;;;9.90;;
77828;SDS011;67019;51.034;3.728;2023-04-15T09:26:02;12.30;;;10.30;;
77828;SDS011;67019;51.034;3.728;2023-04-15T09:28:31;12.23;;;9.10;;
77828;SDS011;67019;51.034;3.728;2023-04-15T09:31:01;14.95;;;8.88;;
77828;SDS011;67019;51.034;3.728;2023-04-15T09:33:28;21.33;;;10.32;;
77828;SDS011;67019;51.034;3.728;2023-04-15T09:35:57;14.05;;;9.68;;
77828;SDS011;67019;51.034;3.728;2023-04-15T09:38:29;14.68;;;9.95;;
77828;SDS011;67019;51.034;3.728;2023-04-15T09:40:57;25.00;;;10.58;;
77828;SDS011;67019;51.034;3.728;2023-04-15T09:43:38;20.52;;;9.73;;
77828;SDS011;67019;51.034;3.728;2023-04-15T09:48:33;19.85;;;10.63;;
77828;SDS011;67019;51.034;3.728;2023-04-15T09:51:02;18.90;;;12.28;;
77828;SDS011;67019;51.034;3.728;2023-04-15T09:53:29;18.12;;;11.70;;
77828;SDS011;67019;51.034;3.728;2023-04-15T09:58:32;18.48;;;11.10;;
77828;SDS011;67019;51.034;3.728;2023-04-15T10:00:58;20.30;;;11.00;;
77828;SDS011;67019;51.034;3.728;2023-04-15T10:03:31;28.30;;;14.77;;
77828;SDS011;67019;51.034;3.728;2023-04-15T10:06:03;41.88;;;18.62;;
77828;SDS011;67019;51.034;3.728;2023-04-15T10:08:31;45.78;;;22.30;;
77828;SDS011;67019;51.034;3.728;2023-04-15T10:11:00;47.75;;;21.48;;
77828;SDS011;67019;51.034;3.728;2023-04-15T10:13:30;42.13;;;21.73;;
77828;SDS011;67019;51.034;3.728;2023-04-15T10:16:04;36.58;;;19.23;;
77828;SDS011;67019;51.034;3.728;2023-04-15T10:18:35;42.33;;;19.42;;
77828;SDS011;67019;51.034;3.728;2023-04-15T10:23:31;41.08;;;19.52;;
77828;SDS011;67019;51.034;3.728;2023-04-15T10:25:59;31.42;;;15.58;;
77828;SDS011;67019;51.034;3.728;2023-04-15T10:28:28;28.25;;;13.43;;
77828;SDS011;67019;51.034;3.728;2023-04-15T10:30:56;26.50;;;13.90;;
77828;SDS011;67019;51.034;3.728;2023-04-15T10:33:24;20.30;;;11.65;;
77828;SDS011;67019;51.034;3.728;2023-04-15T10:35:53;20.08;;;12.45;;
77828;SDS011;67019;51.034;3.728;2023-04-15T10:38:32;20.70;;;11.25;;
77828;SDS011;67019;51.034;3.728;2023-04-15T10:46:42;19.77;;;6.58;;
77828;SDS011;67019;51.034;3.728;2023-04-15T10:48:50;12.35;;;5.37;;
77828;SDS011;67019;51.034;3.728;2023-04-15T10:51:25;7.58;;;4.78;;
77828;SDS011;67019;51.034;3.728;2023-04-15T10:53:58;10.53;;;5.42;;
77828;SDS011;67019;51.034;3.728;2023-04-15T10:56:29;8.25;;;5.60;;
77828;SDS011;67019;51.034;3.728;2023-04-15T11:04:49;8.30;;;5.33;;
77828;SDS011;67019;51.034;3.728;2023-04-15T11:07:06;7.40;;;3.87;;
77828;SDS011;67019;51.034;3.728;2023-04-15T11:12:07;5.78;;;4.92;;
77828;SDS011;67019;51.034;3.728;2023-04-15T11:14:39;7.03;;;4.65;;
77828;SDS011;67019;51.034;3.728;2023-04-15T11:17:08;5.80;;;4.47;;
77828;SDS011;67019;51.034;3.728;2023-04-15T11:19:36;5.53;;;3.75;;
77828;SDS011;67019;51.034;3.728;2023-04-15T11:22:12;6.28;;;3.42;;
77828;SDS011;67019;51.034;3.728;2023-04-15T11:24:45;6.90;;;3.67;;
77828;SDS011;67019;51.034;3.728;2023-04-15T11:27:21;5.62;;;3.60;;
77828;SDS011;67019;51.034;3.728;2023-04-15T11:29:49;5.70;;;3.65;;
77828;SDS011;67019;51.034;3.728;2023-04-15T11:32:17;7.05;;;3.90;;
77828;SDS011;67019;51.034;3.728;2023-04-15T11:34:47;7.90;;;4.28;;
77828;SDS011;67019;51.034;3.728;2023-04-15T11:37:14;9.43;;;4.97;;
77828;SDS011;67019;51.034;3.728;2023-04-15T11:39:43;7.22;;;4.15;;
77828;SDS011;67019;51.034;3.728;2023-04-15T11:42:17;7.33;;;4.30;;
77828;SDS011;67019;51.034;3.728;2023-04-15T11:44:45;5.10;;;2.98;;
77828;SDS011;67019;51.034;3.728;2023-04-15T11:47:31;6.80;;;3.25;;
77828;SDS011;67019;51.034;3.728;2023-04-15T11:49:49;5.95;;;3.80;;
77828;SDS011;67019;51.034;3.728;2023-04-15T11:52:16;4.15;;;3.50;;
77828;SDS011;67019;51.034;3.728;2023-04-15T11:54:44;4.58;;;3.20;;
77828;SDS011;67019;51.034;3.728;2023-04-15T11:57:12;4.40;;;2.95;;
77828;SDS011;67019;51.034;3.728;2023-04-15T11:59:43;4.10;;;2.72;;
77828;SDS011;67019;51.034;3.728;2023-04-15T12:02:11;5.08;;;4.05;;
77828;SDS011;67019;51.034;3.728;2023-04-15T12:04:39;9.55;;;4.12;;
77828;SDS011;67019;51.034;3.728;2023-04-15T12:07:07;6.55;;;4.25;;
77828;SDS011;67019;51.034;3.728;2023-04-15T12:09:38;5.78;;;4.30;;
77828;SDS011;67019;51.034;3.728;2023-04-15T12:14:33;6.00;;;3.50;;
77828;SDS011;67019;51.034;3.728;2023-04-15T12:17:06;4.85;;;3.37;;
77828;SDS011;67019;51.034;3.728;2023-04-15T12:19:34;6.95;;;4.58;;
77828;SDS011;67019;51.034;3.728;2023-04-15T12:22:04;6.40;;;4.10;;
77828;SDS011;67019;51.034;3.728;2023-04-15T12:24:34;11.63;;;5.30;;
77828;SDS011;67019;51.034;3.728;2023-04-15T12:27:03;10.45;;;6.00;;
77828;SDS011;67019;51.034;3.728;2023-04-15T12:29:32;9.13;;;5.30;;
77828;SDS011;67019;51.034;3.728;2023-04-15T12:32:05;7.12;;;5.03;;
77828;SDS011;67019;51.034;3.728;2023-04-15T12:34:35;5.67;;;3.75;;
77828;SDS011;67019;51.034;3.728;2023-04-15T12:37:08;6.72;;;3.72;;
77828;SDS011;67019;51.034;3.728;2023-04-15T12:39:38;13.78;;;5.62;;
77828;SDS011;67019;51.034;3.728;2023-04-15T12:42:08;8.10;;;5.03;;
77828;SDS011;67019;51.034;3.728;2023-04-15T12:44:36;7.12;;;4.85;;
77828;SDS011;67019;51.034;3.728;2023-04-15T12:47:05;12.10;;;5.25;;
77828;SDS011;67019;51.034;3.728;2023-04-15T12:49:34;10.23;;;5.22;;
77828;SDS011;67019;51.034;3.728;2023-04-15T12:52:02;8.13;;;4.72;;
77828;SDS011;67019;51.034;3.728;2023-04-15T12:54:30;7.20;;;4.05;;
77828;SDS011;67019;51.034;3.728;2023-04-15T12:56:59;9.35;;;3.92;;
77828;SDS011;67019;51.034;3.728;2023-04-15T12:59:27;7.65;;;4.25;;
77828;SDS011;67019;51.034;3.728;2023-04-15T13:01:55;13.32;;;5.55;;
77828;SDS011;67019;51.034;3.728;2023-04-15T13:04:24;10.05;;;5.37;;
77828;SDS011;67019;51.034;3.728;2023-04-15T13:06:54;10.50;;;5.90;;
77828;SDS011;67019;51.034;3.728;2023-04-15T13:09:21;8.88;;;5.72;;
77828;SDS011;67019;51.034;3.728;2023-04-15T13:11:49;12.78;;;5.95;;
77828;SDS011;67019;51.034;3.728;2023-04-15T13:14:17;6.40;;;4.30;;
77828;SDS011;67019;51.034;3.728;2023-04-15T13:16:45;6.55;;;4.75;;
77828;SDS011;67019;51.034;3.728;2023-04-15T13:19:12;6.87;;;4.50;;
77828;SDS011;67019;51.034;3.728;2023-04-15T13:21:40;8.05;;;5.28;;
77828;SDS011;67019;51.034;3.728;2023-04-15T13:24:08;14.13;;;4.78;;
77828;SDS011;67019;51.034;3.728;2023-04-15T13:26:35;8.30;;;4.35;;
77828;SDS011;67019;51.034;3.728;2023-04-15T13:29:03;10.00;;;5.00;;
77828;SDS011;67019;51.034;3.728;2023-04-15T13:31:31;11.63;;;4.90;;
77828;SDS011;67019;51.034;3.728;2023-04-15T13:33:59;7.92;;;4.83;;
77828;SDS011;67019;51.034;3.728;2023-04-15T13:36:26;11.90;;;5.62;;
77828;SDS011;67019;51.034;3.728;2023-04-15T13:38:54;7.78;;;4.05;;
77828;SDS011;67019;51.034;3.728;2023-04-15T13:41:22;11.08;;;4.35;;
77828;SDS011;67019;51.034;3.728;2023-04-15T13:43:50;10.93;;;4.75;;
77828;SDS011;67019;51.034;3.728;2023-04-15T13:46:17;8.08;;;4.30;;
77828;SDS011;67019;51.034;3.728;2023-04-15T13:48:45;8.03;;;5.25;;
77828;SDS011;67019;51.034;3.728;2023-04-15T13:51:13;8.93;;;5.65;;
77828;SDS011;67019;51.034;3.728;2023-04-15T13:53:40;11.40;;;6.00;;
77828;SDS011;67019;51.034;3.728;2023-04-15T13:56:09;13.13;;;6.72;;
77828;SDS011;67019;51.034;3.728;2023-04-15T13:58:37;10.82;;;7.37;;
77828;SDS011;67019;51.034;3.728;2023-04-15T14:01:06;13.48;;;7.67;;
77828;SDS011;67019;51.034;3.728;2023-04-15T14:03:33;12.75;;;7.95;;
77828;SDS011;67019;51.034;3.728;2023-04-15T14:06:01;10.38;;;7.67;;
77828;SDS011;67019;51.034;3.728;2023-04-15T14:08:29;11.70;;;7.25;;
77828;SDS011;67019;51.034;3.728;2023-04-15T14:10:57;15.28;;;8.30;;
77828;SDS011;67019;51.034;3.728;2023-04-15T14:13:25;13.00;;;7.72;;
77828;SDS011;67019;51.034;3.728;2023-04-15T14:15:52;8.70;;;6.15;;
77828;SDS011;67019;51.034;3.728;2023-04-15T14:18:20;8.58;;;5.60;;
77828;SDS011;67019;51.034;3.728;2023-04-15T14:20:48;10.08;;;5.92;;
77828;SDS011;67019;51.034;3.728;2023-04-15T14:23:15;12.80;;;7.35;;
77828;SDS011;67019;51.034;3.728;2023-04-15T14:25:43;13.88;;;7.03;;
77828;SDS011;67019;51.034;3.728;2023-04-15T14:28:10;10.88;;;6.87;;
77828;SDS011;67019;51.034;3.728;2023-04-15T14:30:38;14.47;;;8.13;;
77828;SDS011;67019;51.034;3.728;2023-04-15T14:33:05;12.35;;;6.67;;
77828;SDS011;67019;51.034;3.728;2023-04-15T14:35:33;13.18;;;6.97;;
77828;SDS011;67019;51.034;3.728;2023-04-15T14:38:01;13.08;;;7.08;;
77828;SDS011;67019;51.034;3.728;2023-04-15T14:40:31;11.93;;;5.95;;
77828;SDS011;67019;51.034;3.728;2023-04-15T14:42:59;8.45;;;5.33;;
77828;SDS011;67019;51.034;3.728;2023-04-15T14:45:27;10.15;;;5.85;;
77828;SDS011;67019;51.034;3.728;2023-04-15T14:47:55;8.40;;;5.12;;
77828;SDS011;67019;51.034;3.728;2023-04-15T14:50:23;12.05;;;5.97;;
77828;SDS011;67019;51.034;3.728;2023-04-15T14:52:50;13.05;;;4.83;;
77828;SDS011;67019;51.034;3.728;2023-04-15T14:55:18;9.85;;;4.55;;
77828;SDS011;67019;51.034;3.728;2023-04-15T14:57:45;7.50;;;3.33;;
77828;SDS011;67019;51.034;3.728;2023-04-15T15:00:13;6.80;;;3.40;;
77828;SDS011;67019;51.034;3.728;2023-04-15T15:02:41;9.03;;;3.25;;
77828;SDS011;67019;51.034;3.728;2023-04-15T15:05:09;5.05;;;3.37;;